Decoded Metar for PASD (SAND POINT in AK, USA) (IATA:SDP) | Meteo·Mobile Aviation Weather
aviador You're here:

PASD Decoded Metar

SAND POINT in AK, USA
Report Time2019-07-22 00:56:00
UTC Time2019-07-22 01:45:54
Flight Rules vfr VFR
Wind160° at 08 kt
W.Decomp.*RWY 13: 7.7 kt HW 2.1 kt RCW
Visibility9999 m
Phenomena:N/A
Clouds:Few 035 Hf
Few 070 Hf
Expected CloudBase > 2,400 ft AGL from Temp-Dew spread
CeilingNone
Temp15°C (ISA 0)
Dew Point09°C (68% RH)
AAT11.9°C
QNH1023 hPa
Density Alt-154 ft
Elevation23 ft
Report Wrong Elevation
Raw Report
PASD 220056Z 16008KT 10SM FEW035 FEW070 15/09 A3020 RMK AO2 SLP229
T01500089=

Extra information for PASD:More info

Metar Taf Metar & Taf Last 4 Metars F.Rules Stats Wind Profile Meteogram Temp Stats Airport Information Weather charts Add Link Nearby VenuesMetar ALERT Operation Metar Decoded Social comments

AIRNAV info for PASD